sensor_id;sensor_type;location;lat;lon;timestamp;P1;durP1;ratioP1;P2;durP2;ratioP2
74679;SDS011;63211;48.548;2.704;2023-12-22T00:01:43;0.30;;;0.10;;
74679;SDS011;63211;48.548;2.704;2023-12-22T00:04:09;0.63;;;0.10;;
74679;SDS011;63211;48.548;2.704;2023-12-22T00:06:36;0.20;;;0.10;;
74679;SDS011;63211;48.548;2.704;2023-12-22T00:09:03;0.20;;;0.00;;
74679;SDS011;63211;48.548;2.704;2023-12-22T00:11:29;0.00;;;0.00;;
74679;SDS011;63211;48.548;2.704;2023-12-22T00:13:56;0.55;;;0.17;;
74679;SDS011;63211;48.548;2.704;2023-12-22T00:16:24;1.10;;;0.30;;
74679;SDS011;63211;48.548;2.704;2023-12-22T00:18:50;0.17;;;0.00;;
74679;SDS011;63211;48.548;2.704;2023-12-22T00:21:17;0.40;;;0.00;;
74679;SDS011;63211;48.548;2.704;2023-12-22T00:23:44;0.20;;;0.00;;
74679;SDS011;63211;48.548;2.704;2023-12-22T00:26:10;0.63;;;0.20;;
74679;SDS011;63211;48.548;2.704;2023-12-22T00:28:37;0.75;;;0.00;;
74679;SDS011;63211;48.548;2.704;2023-12-22T00:31:04;1.23;;;0.20;;
74679;SDS011;63211;48.548;2.704;2023-12-22T00:33:31;0.85;;;0.00;;
74679;SDS011;63211;48.548;2.704;2023-12-22T00:35:58;1.00;;;0.00;;
74679;SDS011;63211;48.548;2.704;2023-12-22T00:38:25;0.30;;;0.10;;
74679;SDS011;63211;48.548;2.704;2023-12-22T00:40:51;0.20;;;0.10;;
74679;SDS011;63211;48.548;2.704;2023-12-22T00:43:18;0.73;;;0.20;;
74679;SDS011;63211;48.548;2.704;2023-12-22T00:45:45;0.38;;;0.10;;
74679;SDS011;63211;48.548;2.704;2023-12-22T00:48:11;0.10;;;0.10;;
74679;SDS011;63211;48.548;2.704;2023-12-22T00:50:39;0.60;;;0.05;;
74679;SDS011;63211;48.548;2.704;2023-12-22T00:53:06;0.82;;;0.10;;
74679;SDS011;63211;48.548;2.704;2023-12-22T00:55:32;0.20;;;0.17;;
74679;SDS011;63211;48.548;2.704;2023-12-22T00:57:59;0.30;;;0.10;;
74679;SDS011;63211;48.548;2.704;2023-12-22T01:00:25;0.20;;;0.08;;
74679;SDS011;63211;48.548;2.704;2023-12-22T01:02:52;0.20;;;0.10;;
74679;SDS011;63211;48.548;2.704;2023-12-22T01:05:18;0.30;;;0.00;;
74679;SDS011;63211;48.548;2.704;2023-12-22T01:07:46;0.38;;;0.00;;
74679;SDS011;63211;48.548;2.704;2023-12-22T01:10:13;1.20;;;0.20;;
74679;SDS011;63211;48.548;2.704;2023-12-22T01:12:39;0.70;;;0.03;;
74679;SDS011;63211;48.548;2.704;2023-12-22T01:15:06;1.08;;;0.10;;
74679;SDS011;63211;48.548;2.704;2023-12-22T01:17:33;0.30;;;0.05;;
74679;SDS011;63211;48.548;2.704;2023-12-22T01:20:00;0.52;;;0.03;;
74679;SDS011;63211;48.548;2.704;2023-12-22T01:22:27;0.65;;;0.10;;
74679;SDS011;63211;48.548;2.704;2023-12-22T01:24:54;0.30;;;0.10;;
74679;SDS011;63211;48.548;2.704;2023-12-22T01:27:21;0.17;;;0.00;;
74679;SDS011;63211;48.548;2.704;2023-12-22T01:29:47;0.20;;;0.00;;
74679;SDS011;63211;48.548;2.704;2023-12-22T01:32:14;0.98;;;0.05;;
74679;SDS011;63211;48.548;2.704;2023-12-22T01:34:41;0.70;;;0.10;;
74679;SDS011;63211;48.548;2.704;2023-12-22T01:37:08;0.55;;;0.10;;
74679;SDS011;63211;48.548;2.704;2023-12-22T01:39:35;0.63;;;0.10;;
74679;SDS011;63211;48.548;2.704;2023-12-22T01:42:03;0.68;;;0.10;;
74679;SDS011;63211;48.548;2.704;2023-12-22T01:44:30;1.00;;;0.10;;
74679;SDS011;63211;48.548;2.704;2023-12-22T01:46:56;0.40;;;0.10;;
74679;SDS011;63211;48.548;2.704;2023-12-22T01:49:24;0.30;;;0.00;;
74679;SDS011;63211;48.548;2.704;2023-12-22T01:51:51;0.63;;;0.10;;
74679;SDS011;63211;48.548;2.704;2023-12-22T01:54:19;2.13;;;0.10;;
74679;SDS011;63211;48.548;2.704;2023-12-22T01:56:45;0.20;;;0.00;;
74679;SDS011;63211;48.548;2.704;2023-12-22T01:59:13;0.30;;;0.03;;
74679;SDS011;63211;48.548;2.704;2023-12-22T02:01:40;0.35;;;0.00;;
74679;SDS011;63211;48.548;2.704;2023-12-22T02:04:09;0.20;;;0.10;;
74679;SDS011;63211;48.548;2.704;2023-12-22T02:06:35;0.65;;;0.00;;
74679;SDS011;63211;48.548;2.704;2023-12-22T02:09:02;0.80;;;0.05;;
74679;SDS011;63211;48.548;2.704;2023-12-22T02:11:30;1.65;;;0.22;;
74679;SDS011;63211;48.548;2.704;2023-12-22T02:13:56;0.77;;;0.05;;
74679;SDS011;63211;48.548;2.704;2023-12-22T02:16:26;0.95;;;0.03;;
74679;SDS011;63211;48.548;2.704;2023-12-22T02:19:04;0.43;;;0.00;;
74679;SDS011;63211;48.548;2.704;2023-12-22T02:24:29;1.15;;;0.20;;
74679;SDS011;63211;48.548;2.704;2023-12-22T02:26:57;0.43;;;0.08;;
74679;SDS011;63211;48.548;2.704;2023-12-22T02:29:31;0.77;;;0.10;;
74679;SDS011;63211;48.548;2.704;2023-12-22T02:32:00;0.43;;;0.00;;
74679;SDS011;63211;48.548;2.704;2023-12-22T02:34:32;0.00;;;0.00;;
74679;SDS011;63211;48.548;2.704;2023-12-22T02:39:32;0.73;;;0.20;;
74679;SDS011;63211;48.548;2.704;2023-12-22T02:41:59;0.65;;;0.10;;
74679;SDS011;63211;48.548;2.704;2023-12-22T02:44:26;0.35;;;0.00;;
74679;SDS011;63211;48.548;2.704;2023-12-22T02:46:53;0.80;;;0.10;;
74679;SDS011;63211;48.548;2.704;2023-12-22T02:49:20;0.10;;;0.10;;
74679;SDS011;63211;48.548;2.704;2023-12-22T02:51:46;0.75;;;0.20;;
74679;SDS011;63211;48.548;2.704;2023-12-22T02:54:13;4.03;;;0.20;;
74679;SDS011;63211;48.548;2.704;2023-12-22T02:56:41;0.80;;;0.10;;
74679;SDS011;63211;48.548;2.704;2023-12-22T02:59:08;0.93;;;0.20;;
74679;SDS011;63211;48.548;2.704;2023-12-22T03:01:35;0.25;;;0.00;;
74679;SDS011;63211;48.548;2.704;2023-12-22T03:04:02;1.08;;;0.10;;
74679;SDS011;63211;48.548;2.704;2023-12-22T03:06:28;0.40;;;0.05;;
74679;SDS011;63211;48.548;2.704;2023-12-22T03:08:55;0.00;;;0.00;;
74679;SDS011;63211;48.548;2.704;2023-12-22T03:11:21;0.20;;;0.00;;
74679;SDS011;63211;48.548;2.704;2023-12-22T03:13:49;0.98;;;0.10;;
74679;SDS011;63211;48.548;2.704;2023-12-22T03:16:16;0.80;;;0.03;;
74679;SDS011;63211;48.548;2.704;2023-12-22T03:18:42;1.42;;;0.10;;
74679;SDS011;63211;48.548;2.704;2023-12-22T03:21:15;0.73;;;0.00;;
74679;SDS011;63211;48.548;2.704;2023-12-22T03:23:42;0.90;;;0.20;;
74679;SDS011;63211;48.548;2.704;2023-12-22T03:26:09;0.22;;;0.00;;
74679;SDS011;63211;48.548;2.704;2023-12-22T03:28:35;0.55;;;0.10;;
74679;SDS011;63211;48.548;2.704;2023-12-22T03:31:04;0.65;;;0.20;;
74679;SDS011;63211;48.548;2.704;2023-12-22T03:33:31;1.13;;;0.10;;
74679;SDS011;63211;48.548;2.704;2023-12-22T03:35:58;0.70;;;0.00;;
74679;SDS011;63211;48.548;2.704;2023-12-22T03:38:25;0.40;;;0.10;;
74679;SDS011;63211;48.548;2.704;2023-12-22T03:40:51;1.27;;;0.00;;
74679;SDS011;63211;48.548;2.704;2023-12-22T03:43:18;0.17;;;0.00;;
74679;SDS011;63211;48.548;2.704;2023-12-22T03:45:44;0.28;;;0.00;;
74679;SDS011;63211;48.548;2.704;2023-12-22T03:48:12;0.52;;;0.20;;
74679;SDS011;63211;48.548;2.704;2023-12-22T03:50:39;0.95;;;0.20;;
74679;SDS011;63211;48.548;2.704;2023-12-22T03:53:05;0.73;;;0.08;;
74679;SDS011;63211;48.548;2.704;2023-12-22T03:55:32;0.52;;;0.10;;
74679;SDS011;63211;48.548;2.704;2023-12-22T03:57:57;0.38;;;0.00;;
74679;SDS011;63211;48.548;2.704;2023-12-22T04:00:24;0.95;;;0.10;;
74679;SDS011;63211;48.548;2.704;2023-12-22T04:02:50;0.93;;;0.20;;
74679;SDS011;63211;48.548;2.704;2023-12-22T04:05:18;0.80;;;0.10;;
74679;SDS011;63211;48.548;2.704;2023-12-22T04:07:45;0.28;;;0.05;;
74679;SDS011;63211;48.548;2.704;2023-12-22T04:10:12;0.38;;;0.00;;
74679;SDS011;63211;48.548;2.704;2023-12-22T04:12:38;0.50;;;0.10;;
74679;SDS011;63211;48.548;2.704;2023-12-22T04:15:05;0.75;;;0.10;;
74679;SDS011;63211;48.548;2.704;2023-12-22T04:17:33;1.08;;;0.05;;
74679;SDS011;63211;48.548;2.704;2023-12-22T04:20:00;0.43;;;0.10;;
74679;SDS011;63211;48.548;2.704;2023-12-22T04:22:28;0.35;;;0.00;;
74679;SDS011;63211;48.548;2.704;2023-12-22T04:24:54;0.52;;;0.00;;
74679;SDS011;63211;48.548;2.704;2023-12-22T04:27:21;0.00;;;0.00;;
74679;SDS011;63211;48.548;2.704;2023-12-22T04:29:47;0.77;;;0.10;;
74679;SDS011;63211;48.548;2.704;2023-12-22T04:32:14;0.73;;;0.10;;
74679;SDS011;63211;48.548;2.704;2023-12-22T04:34:41;2.35;;;0.13;;
74679;SDS011;63211;48.548;2.704;2023-12-22T04:37:07;0.35;;;0.00;;
74679;SDS011;63211;48.548;2.704;2023-12-22T04:39:35;0.30;;;0.10;;
74679;SDS011;63211;48.548;2.704;2023-12-22T04:42:02;1.25;;;0.00;;
74679;SDS011;63211;48.548;2.704;2023-12-22T04:44:28;1.17;;;0.10;;
74679;SDS011;63211;48.548;2.704;2023-12-22T04:46:55;0.65;;;0.20;;
74679;SDS011;63211;48.548;2.704;2023-12-22T04:49:22;0.45;;;0.08;;
74679;SDS011;63211;48.548;2.704;2023-12-22T04:51:48;0.43;;;0.00;;
74679;SDS011;63211;48.548;2.704;2023-12-22T04:54:15;0.05;;;0.00;;
74679;SDS011;63211;48.548;2.704;2023-12-22T04:56:43;1.08;;;0.00;;
74679;SDS011;63211;48.548;2.704;2023-12-22T04:59:09;0.52;;;0.50;;
74679;SDS011;63211;48.548;2.704;2023-12-22T05:01:36;0.52;;;0.15;;
74679;SDS011;63211;48.548;2.704;2023-12-22T05:04:02;0.63;;;0.10;;
74679;SDS011;63211;48.548;2.704;2023-12-22T05:06:29;0.38;;;0.05;;
74679;SDS011;63211;48.548;2.704;2023-12-22T05:08:56;0.10;;;0.00;;
74679;SDS011;63211;48.548;2.704;2023-12-22T05:11:22;0.25;;;0.00;;
74679;SDS011;63211;48.548;2.704;2023-12-22T05:13:50;0.57;;;0.10;;
74679;SDS011;63211;48.548;2.704;2023-12-22T05:16:17;0.05;;;0.00;;
74679;SDS011;63211;48.548;2.704;2023-12-22T05:18:43;0.00;;;0.00;;
74679;SDS011;63211;48.548;2.704;2023-12-22T05:21:11;0.10;;;0.00;;
74679;SDS011;63211;48.548;2.704;2023-12-22T05:23:38;0.45;;;0.10;;
74679;SDS011;63211;48.548;2.704;2023-12-22T05:26:05;0.00;;;0.00;;
74679;SDS011;63211;48.548;2.704;2023-12-22T05:28:31;0.03;;;0.00;;
74679;SDS011;63211;48.548;2.704;2023-12-22T05:30:59;0.10;;;0.00;;
74679;SDS011;63211;48.548;2.704;2023-12-22T05:33:26;0.63;;;0.10;;
74679;SDS011;63211;48.548;2.704;2023-12-22T05:35:52;0.00;;;0.00;;
74679;SDS011;63211;48.548;2.704;2023-12-22T05:38:19;1.27;;;0.08;;
74679;SDS011;63211;48.548;2.704;2023-12-22T05:40:45;0.22;;;0.00;;
74679;SDS011;63211;48.548;2.704;2023-12-22T05:43:13;0.60;;;0.13;;
74679;SDS011;63211;48.548;2.704;2023-12-22T05:45:39;0.90;;;0.10;;
74679;SDS011;63211;48.548;2.704;2023-12-22T05:48:07;0.30;;;0.10;;
74679;SDS011;63211;48.548;2.704;2023-12-22T05:50:34;2.05;;;0.10;;
74679;SDS011;63211;48.548;2.704;2023-12-22T05:53:01;0.10;;;0.00;;
74679;SDS011;63211;48.548;2.704;2023-12-22T05:55:27;0.50;;;0.00;;
74679;SDS011;63211;48.548;2.704;2023-12-22T05:57:54;0.10;;;0.00;;
74679;SDS011;63211;48.548;2.704;2023-12-22T06:00:21;0.68;;;0.10;;
74679;SDS011;63211;48.548;2.704;2023-12-22T06:02:47;0.50;;;0.00;;
74679;SDS011;63211;48.548;2.704;2023-12-22T06:05:15;0.55;;;0.00;;
74679;SDS011;63211;48.548;2.704;2023-12-22T06:07:41;0.08;;;0.00;;
74679;SDS011;63211;48.548;2.704;2023-12-22T06:10:08;0.08;;;0.00;;
74679;SDS011;63211;48.548;2.704;2023-12-22T06:12:34;3.53;;;0.10;;
74679;SDS011;63211;48.548;2.704;2023-12-22T06:15:01;1.48;;;0.32;;
74679;SDS011;63211;48.548;2.704;2023-12-22T06:17:28;2.25;;;0.10;;
74679;SDS011;63211;48.548;2.704;2023-12-22T06:19:54;0.50;;;0.13;;
74679;SDS011;63211;48.548;2.704;2023-12-22T06:22:22;0.95;;;0.28;;
74679;SDS011;63211;48.548;2.704;2023-12-22T06:24:49;0.65;;;0.10;;
74679;SDS011;63211;48.548;2.704;2023-12-22T06:27:16;0.82;;;0.00;;
74679;SDS011;63211;48.548;2.704;2023-12-22T06:29:43;2.15;;;0.17;;
74679;SDS011;63211;48.548;2.704;2023-12-22T06:32:10;0.85;;;0.32;;
74679;SDS011;63211;48.548;2.704;2023-12-22T06:34:37;0.10;;;0.00;;
74679;SDS011;63211;48.548;2.704;2023-12-22T06:37:03;1.20;;;0.20;;
74679;SDS011;63211;48.548;2.704;2023-12-22T06:39:34;0.17;;;0.00;;
74679;SDS011;63211;48.548;2.704;2023-12-22T06:42:00;1.45;;;0.10;;
74679;SDS011;63211;48.548;2.704;2023-12-22T06:44:27;0.70;;;0.00;;
74679;SDS011;63211;48.548;2.704;2023-12-22T06:46:54;0.50;;;0.05;;
74679;SDS011;63211;48.548;2.704;2023-12-22T06:49:21;0.32;;;0.10;;
74679;SDS011;63211;48.548;2.704;2023-12-22T06:51:47;1.20;;;0.00;;
74679;SDS011;63211;48.548;2.704;2023-12-22T06:54:14;1.10;;;0.10;;
74679;SDS011;63211;48.548;2.704;2023-12-22T06:56:42;0.50;;;0.13;;
74679;SDS011;63211;48.548;2.704;2023-12-22T06:59:08;135.07;;;25.23;;
74679;SDS011;63211;48.548;2.704;2023-12-22T07:01:37;72.85;;;14.88;;
74679;SDS011;63211;48.548;2.704;2023-12-22T07:04:04;70.90;;;12.43;;
74679;SDS011;63211;48.548;2.704;2023-12-22T07:06:32;45.42;;;9.90;;
74679;SDS011;63211;48.548;2.704;2023-12-22T07:11:57;37.20;;;7.15;;
74679;SDS011;63211;48.548;2.704;2023-12-22T07:14:24;33.28;;;7.18;;
74679;SDS011;63211;48.548;2.704;2023-12-22T07:16:50;29.85;;;6.80;;
74679;SDS011;63211;48.548;2.704;2023-12-22T07:19:17;29.23;;;6.25;;
74679;SDS011;63211;48.548;2.704;2023-12-22T07:21:43;32.50;;;5.60;;
74679;SDS011;63211;48.548;2.704;2023-12-22T07:24:10;34.95;;;4.95;;
74679;SDS011;63211;48.548;2.704;2023-12-22T07:26:36;30.02;;;4.53;;
74679;SDS011;63211;48.548;2.704;2023-12-22T07:29:04;20.92;;;4.55;;
74679;SDS011;63211;48.548;2.704;2023-12-22T07:31:31;31.08;;;5.50;;
74679;SDS011;63211;48.548;2.704;2023-12-22T07:33:57;25.27;;;4.07;;
74679;SDS011;63211;48.548;2.704;2023-12-22T07:36:24;17.75;;;4.13;;
74679;SDS011;63211;48.548;2.704;2023-12-22T07:38:50;18.58;;;3.80;;
74679;SDS011;63211;48.548;2.704;2023-12-22T07:41:17;14.98;;;3.80;;
74679;SDS011;63211;48.548;2.704;2023-12-22T07:43:43;18.15;;;3.65;;
74679;SDS011;63211;48.548;2.704;2023-12-22T07:46:17;20.42;;;3.35;;
74679;SDS011;63211;48.548;2.704;2023-12-22T07:48:44;16.80;;;3.15;;
74679;SDS011;63211;48.548;2.704;2023-12-22T07:51:11;22.92;;;3.78;;
74679;SDS011;63211;48.548;2.704;2023-12-22T07:53:38;9.25;;;3.08;;
74679;SDS011;63211;48.548;2.704;2023-12-22T07:56:04;11.20;;;3.00;;
74679;SDS011;63211;48.548;2.704;2023-12-22T07:58:32;13.20;;;2.65;;
74679;SDS011;63211;48.548;2.704;2023-12-22T08:00:58;14.65;;;2.83;;
74679;SDS011;63211;48.548;2.704;2023-12-22T08:03:26;9.07;;;1.95;;
74679;SDS011;63211;48.548;2.704;2023-12-22T08:05:53;7.80;;;1.60;;
74679;SDS011;63211;48.548;2.704;2023-12-22T08:08:20;9.98;;;1.90;;
74679;SDS011;63211;48.548;2.704;2023-12-22T08:10:47;8.50;;;1.75;;
74679;SDS011;63211;48.548;2.704;2023-12-22T08:13:14;11.10;;;1.83;;
74679;SDS011;63211;48.548;2.704;2023-12-22T08:15:41;9.13;;;1.52;;
74679;SDS011;63211;48.548;2.704;2023-12-22T08:18:08;7.15;;;1.30;;
74679;SDS011;63211;48.548;2.704;2023-12-22T08:20:36;7.65;;;1.20;;
74679;SDS011;63211;48.548;2.704;2023-12-22T08:23:03;8.75;;;1.83;;
74679;SDS011;63211;48.548;2.704;2023-12-22T08:25:30;6.38;;;1.50;;
74679;SDS011;63211;48.548;2.704;2023-12-22T08:27:56;5.32;;;1.17;;
74679;SDS011;63211;48.548;2.704;2023-12-22T08:30:23;7.60;;;1.63;;
74679;SDS011;63211;48.548;2.704;2023-12-22T08:32:49;5.47;;;1.17;;
74679;SDS011;63211;48.548;2.704;2023-12-22T08:35:16;4.13;;;1.10;;
74679;SDS011;63211;48.548;2.704;2023-12-22T08:37:44;3.17;;;0.98;;
74679;SDS011;63211;48.548;2.704;2023-12-22T08:40:11;4.50;;;1.67;;
74679;SDS011;63211;48.548;2.704;2023-12-22T08:42:37;5.28;;;0.98;;
74679;SDS011;63211;48.548;2.704;2023-12-22T08:45:05;6.50;;;1.13;;
74679;SDS011;63211;48.548;2.704;2023-12-22T08:47:32;3.20;;;0.60;;
74679;SDS011;63211;48.548;2.704;2023-12-22T08:49:59;6.15;;;0.95;;
74679;SDS011;63211;48.548;2.704;2023-12-22T08:52:29;4.90;;;0.60;;
74679;SDS011;63211;48.548;2.704;2023-12-22T08:54:57;3.05;;;0.50;;
74679;SDS011;63211;48.548;2.704;2023-12-22T08:57:23;2.67;;;0.60;;
74679;SDS011;63211;48.548;2.704;2023-12-22T08:59:50;4.70;;;0.93;;
74679;SDS011;63211;48.548;2.704;2023-12-22T09:02:16;4.85;;;0.43;;
74679;SDS011;63211;48.548;2.704;2023-12-22T09:04:43;2.65;;;0.50;;
74679;SDS011;63211;48.548;2.704;2023-12-22T09:07:09;2.53;;;0.77;;
74679;SDS011;63211;48.548;2.704;2023-12-22T09:09:36;4.38;;;0.50;;
74679;SDS011;63211;48.548;2.704;2023-12-22T09:12:04;3.17;;;0.60;;
74679;SDS011;63211;48.548;2.704;2023-12-22T09:14:31;3.50;;;1.27;;
74679;SDS011;63211;48.548;2.704;2023-12-22T09:16:57;2.17;;;0.63;;
74679;SDS011;63211;48.548;2.704;2023-12-22T09:19:24;3.95;;;0.45;;
74679;SDS011;63211;48.548;2.704;2023-12-22T09:21:51;1.48;;;0.60;;
74679;SDS011;63211;48.548;2.704;2023-12-22T09:24:18;5.20;;;0.57;;
74679;SDS011;63211;48.548;2.704;2023-12-22T09:26:44;1.98;;;0.22;;
74679;SDS011;63211;48.548;2.704;2023-12-22T09:29:12;2.33;;;0.20;;
74679;SDS011;63211;48.548;2.704;2023-12-22T09:31:39;3.33;;;0.32;;
74679;SDS011;63211;48.548;2.704;2023-12-22T09:34:06;3.13;;;0.90;;
74679;SDS011;63211;48.548;2.704;2023-12-22T09:36:32;1.48;;;0.40;;
74679;SDS011;63211;48.548;2.704;2023-12-22T09:38:59;3.20;;;0.45;;
74679;SDS011;63211;48.548;2.704;2023-12-22T09:41:26;2.22;;;0.40;;
74679;SDS011;63211;48.548;2.704;2023-12-22T09:43:53;1.58;;;0.30;;
74679;SDS011;63211;48.548;2.704;2023-12-22T09:46:23;0.93;;;0.40;;
74679;SDS011;63211;48.548;2.704;2023-12-22T09:48:51;1.83;;;0.30;;
74679;SDS011;63211;48.548;2.704;2023-12-22T09:51:18;2.10;;;0.43;;
74679;SDS011;63211;48.548;2.704;2023-12-22T09:53:45;1.90;;;0.32;;
74679;SDS011;63211;48.548;2.704;2023-12-22T09:56:13;1.10;;;0.20;;
74679;SDS011;63211;48.548;2.704;2023-12-22T09:58:41;0.80;;;0.20;;
74679;SDS011;63211;48.548;2.704;2023-12-22T10:01:08;1.60;;;0.20;;
74679;SDS011;63211;48.548;2.704;2023-12-22T10:03:37;0.85;;;0.20;;
74679;SDS011;63211;48.548;2.704;2023-12-22T10:06:04;1.10;;;0.30;;
74679;SDS011;63211;48.548;2.704;2023-12-22T10:08:31;0.65;;;0.20;;
74679;SDS011;63211;48.548;2.704;2023-12-22T10:10:59;0.98;;;0.13;;
74679;SDS011;63211;48.548;2.704;2023-12-22T10:13:25;1.45;;;0.28;;
74679;SDS011;63211;48.548;2.704;2023-12-22T10:15:53;0.75;;;0.10;;
74679;SDS011;63211;48.548;2.704;2023-12-22T10:18:21;1.00;;;0.28;;
74679;SDS011;63211;48.548;2.704;2023-12-22T10:20:49;0.75;;;0.15;;
74679;SDS011;63211;48.548;2.704;2023-12-22T10:23:16;0.35;;;0.10;;
74679;SDS011;63211;48.548;2.704;2023-12-22T10:25:42;2.10;;;0.20;;
74679;SDS011;63211;48.548;2.704;2023-12-22T10:28:10;0.10;;;0.00;;
74679;SDS011;63211;48.548;2.704;2023-12-22T10:30:38;0.70;;;0.10;;
74679;SDS011;63211;48.548;2.704;2023-12-22T10:33:06;0.75;;;0.08;;
74679;SDS011;63211;48.548;2.704;2023-12-22T10:35:33;1.40;;;0.10;;
74679;SDS011;63211;48.548;2.704;2023-12-22T10:38:00;2.47;;;0.28;;
74679;SDS011;63211;48.548;2.704;2023-12-22T10:40:27;0.65;;;0.00;;
74679;SDS011;63211;48.548;2.704;2023-12-22T10:42:55;1.00;;;0.10;;
74679;SDS011;63211;48.548;2.704;2023-12-22T10:45:22;0.05;;;0.00;;
74679;SDS011;63211;48.548;2.704;2023-12-22T10:47:49;0.43;;;0.00;;
74679;SDS011;63211;48.548;2.704;2023-12-22T10:50:19;0.40;;;0.10;;
74679;SDS011;63211;48.548;2.704;2023-12-22T10:52:48;1.80;;;0.40;;
74679;SDS011;63211;48.548;2.704;2023-12-22T10:55:16;0.45;;;0.10;;
74679;SDS011;63211;48.548;2.704;2023-12-22T10:57:44;0.70;;;0.10;;
74679;SDS011;63211;48.548;2.704;2023-12-22T11:00:12;0.55;;;0.20;;
74679;SDS011;63211;48.548;2.704;2023-12-22T11:02:42;0.38;;;0.15;;
74679;SDS011;63211;48.548;2.704;2023-12-22T11:05:10;0.55;;;0.10;;
74679;SDS011;63211;48.548;2.704;2023-12-22T11:07:37;0.50;;;0.40;;
74679;SDS011;63211;48.548;2.704;2023-12-22T11:10:05;0.13;;;0.00;;
74679;SDS011;63211;48.548;2.704;2023-12-22T11:12:34;0.43;;;0.10;;
74679;SDS011;63211;48.548;2.704;2023-12-22T11:15:02;1.02;;;0.20;;
74679;SDS011;63211;48.548;2.704;2023-12-22T11:17:32;1.98;;;0.20;;
74679;SDS011;63211;48.548;2.704;2023-12-22T11:19:59;0.73;;;0.10;;
74679;SDS011;63211;48.548;2.704;2023-12-22T11:22:26;1.13;;;0.17;;
74679;SDS011;63211;48.548;2.704;2023-12-22T11:24:53;0.57;;;0.10;;
74679;SDS011;63211;48.548;2.704;2023-12-22T11:27:22;1.60;;;0.10;;
74679;SDS011;63211;48.548;2.704;2023-12-22T11:29:53;0.10;;;0.00;;
74679;SDS011;63211;48.548;2.704;2023-12-22T11:32:20;1.45;;;0.00;;
74679;SDS011;63211;48.548;2.704;2023-12-22T11:34:48;0.75;;;0.00;;
74679;SDS011;63211;48.548;2.704;2023-12-22T11:37:14;0.50;;;0.00;;
74679;SDS011;63211;48.548;2.704;2023-12-22T11:39:42;0.10;;;0.00;;
74679;SDS011;63211;48.548;2.704;2023-12-22T11:42:12;0.00;;;0.00;;
74679;SDS011;63211;48.548;2.704;2023-12-22T11:44:43;0.40;;;0.05;;
74679;SDS011;63211;48.548;2.704;2023-12-22T11:47:11;0.65;;;0.20;;
74679;SDS011;63211;48.548;2.704;2023-12-22T11:49:40;0.38;;;0.08;;
74679;SDS011;63211;48.548;2.704;2023-12-22T11:52:10;0.10;;;0.00;;
74679;SDS011;63211;48.548;2.704;2023-12-22T11:54:44;0.85;;;0.10;;
74679;SDS011;63211;48.548;2.704;2023-12-22T12:00:00;0.80;;;0.10;;
74679;SDS011;63211;48.548;2.704;2023-12-22T12:02:30;0.45;;;0.10;;
74679;SDS011;63211;48.548;2.704;2023-12-22T12:04:58;0.93;;;0.10;;
74679;SDS011;63211;48.548;2.704;2023-12-22T12:07:39;0.30;;;0.00;;
74679;SDS011;63211;48.548;2.704;2023-12-22T12:10:09;0.55;;;0.15;;
74679;SDS011;63211;48.548;2.704;2023-12-22T12:12:36;0.00;;;0.00;;
74679;SDS011;63211;48.548;2.704;2023-12-22T12:15:06;0.30;;;0.00;;
74679;SDS011;63211;48.548;2.704;2023-12-22T12:17:38;0.17;;;0.00;;
74679;SDS011;63211;48.548;2.704;2023-12-22T12:20:07;0.40;;;0.05;;
74679;SDS011;63211;48.548;2.704;2023-12-22T12:22:35;0.63;;;0.20;;
74679;SDS011;63211;48.548;2.704;2023-12-22T12:25:03;0.82;;;0.00;;
74679;SDS011;63211;48.548;2.704;2023-12-22T12:27:32;1.08;;;0.03;;
74679;SDS011;63211;48.548;2.704;2023-12-22T12:30:03;0.40;;;0.10;;
74679;SDS011;63211;48.548;2.704;2023-12-22T12:32:34;1.38;;;0.10;;
74679;SDS011;63211;48.548;2.704;2023-12-22T12:35:03;0.35;;;0.00;;
74679;SDS011;63211;48.548;2.704;2023-12-22T12:37:30;0.28;;;0.00;;
74679;SDS011;63211;48.548;2.704;2023-12-22T12:39:58;0.10;;;0.00;;
74679;SDS011;63211;48.548;2.704;2023-12-22T12:42:26;1.17;;;0.03;;
74679;SDS011;63211;48.548;2.704;2023-12-22T12:44:55;0.38;;;0.10;;
74679;SDS011;63211;48.548;2.704;2023-12-22T12:47:22;0.60;;;0.03;;
74679;SDS011;63211;48.548;2.704;2023-12-22T12:49:56;1.55;;;0.20;;
74679;SDS011;63211;48.548;2.704;2023-12-22T12:52:24;0.20;;;0.10;;
74679;SDS011;63211;48.548;2.704;2023-12-22T12:54:51;0.17;;;0.00;;
74679;SDS011;63211;48.548;2.704;2023-12-22T12:57:18;0.10;;;0.00;;
74679;SDS011;63211;48.548;2.704;2023-12-22T12:59:45;0.35;;;0.28;;
74679;SDS011;63211;48.548;2.704;2023-12-22T13:02:13;1.42;;;0.10;;
74679;SDS011;63211;48.548;2.704;2023-12-22T13:04:40;0.20;;;0.00;;
74679;SDS011;63211;48.548;2.704;2023-12-22T13:07:07;0.43;;;0.00;;
74679;SDS011;63211;48.548;2.704;2023-12-22T13:09:36;0.00;;;0.00;;
74679;SDS011;63211;48.548;2.704;2023-12-22T13:12:03;0.25;;;0.00;;
74679;SDS011;63211;48.548;2.704;2023-12-22T13:14:30;0.93;;;0.10;;
74679;SDS011;63211;48.548;2.704;2023-12-22T13:16:57;0.82;;;0.20;;
74679;SDS011;63211;48.548;2.704;2023-12-22T13:19:25;0.93;;;0.30;;
74679;SDS011;63211;48.548;2.704;2023-12-22T13:21:52;0.35;;;0.10;;
74679;SDS011;63211;48.548;2.704;2023-12-22T13:24:19;0.77;;;0.30;;
74679;SDS011;63211;48.548;2.704;2023-12-22T13:26:57;0.15;;;0.10;;
74679;SDS011;63211;48.548;2.704;2023-12-22T13:29:25;1.05;;;0.10;;
74679;SDS011;63211;48.548;2.704;2023-12-22T13:31:54;0.47;;;0.17;;
74679;SDS011;63211;48.548;2.704;2023-12-22T13:34:22;0.47;;;0.10;;
74679;SDS011;63211;48.548;2.704;2023-12-22T13:36:49;0.17;;;0.00;;
74679;SDS011;63211;48.548;2.704;2023-12-22T13:39:16;1.00;;;0.10;;
74679;SDS011;63211;48.548;2.704;2023-12-22T13:41:43;2.90;;;0.10;;
74679;SDS011;63211;48.548;2.704;2023-12-22T13:44:12;1.30;;;0.30;;
74679;SDS011;63211;48.548;2.704;2023-12-22T13:46:39;0.30;;;0.10;;
74679;SDS011;63211;48.548;2.704;2023-12-22T13:49:08;0.20;;;0.10;;
74679;SDS011;63211;48.548;2.704;2023-12-22T13:51:42;0.82;;;0.28;;
74679;SDS011;63211;48.548;2.704;2023-12-22T13:54:10;0.45;;;0.00;;
74679;SDS011;63211;48.548;2.704;2023-12-22T13:56:37;0.25;;;0.10;;
74679;SDS011;63211;48.548;2.704;2023-12-22T13:59:05;0.40;;;0.00;;
74679;SDS011;63211;48.548;2.704;2023-12-22T14:01:33;1.15;;;0.13;;
74679;SDS011;63211;48.548;2.704;2023-12-22T14:04:01;0.30;;;0.10;;
74679;SDS011;63211;48.548;2.704;2023-12-22T14:06:28;2.10;;;0.30;;
74679;SDS011;63211;48.548;2.704;2023-12-22T14:08:55;0.38;;;0.08;;
74679;SDS011;63211;48.548;2.704;2023-12-22T14:11:22;1.52;;;0.10;;
74679;SDS011;63211;48.548;2.704;2023-12-22T14:13:49;0.57;;;0.00;;
74679;SDS011;63211;48.548;2.704;2023-12-22T14:16:15;0.20;;;0.10;;
74679;SDS011;63211;48.548;2.704;2023-12-22T14:18:43;0.30;;;0.00;;
74679;SDS011;63211;48.548;2.704;2023-12-22T14:21:10;1.23;;;0.10;;
74679;SDS011;63211;48.548;2.704;2023-12-22T14:23:37;1.65;;;0.10;;
74679;SDS011;63211;48.548;2.704;2023-12-22T14:26:04;0.38;;;0.08;;
74679;SDS011;63211;48.548;2.704;2023-12-22T14:28:31;0.28;;;0.03;;
74679;SDS011;63211;48.548;2.704;2023-12-22T14:30:58;0.50;;;0.10;;
74679;SDS011;63211;48.548;2.704;2023-12-22T14:33:24;0.13;;;0.00;;
74679;SDS011;63211;48.548;2.704;2023-12-22T14:35:53;1.17;;;0.10;;
74679;SDS011;63211;48.548;2.704;2023-12-22T14:38:19;0.15;;;0.00;;
74679;SDS011;63211;48.548;2.704;2023-12-22T14:40:46;0.63;;;0.10;;
74679;SDS011;63211;48.548;2.704;2023-12-22T14:43:12;0.82;;;0.15;;
74679;SDS011;63211;48.548;2.704;2023-12-22T14:45:39;1.38;;;0.30;;
74679;SDS011;63211;48.548;2.704;2023-12-22T14:48:06;0.77;;;0.17;;
74679;SDS011;63211;48.548;2.704;2023-12-22T14:50:33;0.13;;;0.00;;
74679;SDS011;63211;48.548;2.704;2023-12-22T14:53:01;2.35;;;0.25;;
74679;SDS011;63211;48.548;2.704;2023-12-22T14:55:27;0.17;;;0.03;;
74679;SDS011;63211;48.548;2.704;2023-12-22T14:57:54;0.25;;;0.10;;